Time;durP1;ratioP1;P1;durP2;ratioP2;P2;SDS_P1;SDS_P2;PMS_P1;PMS_P2;Temp;Humidity;BMP_temperature;BMP_pressure;BME280_temperature;BME280_humidity;BME280_pressure;Samples;Min_cycle;Max_cycle;Signal;HPM_P1;HPM_P2
2023/08/24 00:00:35;;;;;;;5.55;4.78;;;29.20;96.70;;;;;;5040265;28;20410;-78
2023/08/24 00:03:04;;;;;;;5.45;4.75;;;29.20;96.70;;;;;;5021281;28;20499;-77
2023/08/24 00:05:34;;;;;;;8.45;5.28;;;29.20;96.70;;;;;;5020253;28;20038;-78
2023/08/24 00:08:05;;;;;;;5.95;5.25;;;29.20;96.70;;;;;;5043359;28;20068;-78
2023/08/24 00:10:34;;;;;;;6.03;5.43;;;29.10;96.70;;;;;;5028298;28;20055;-77
2023/08/24 00:13:03;;;;;;;6.28;5.07;;;29.00;96.70;;;;;;5041488;28;20469;-78
2023/08/24 00:15:31;;;;;;;5.00;4.50;;;28.90;96.70;;;;;;5031277;28;21028;-78
2023/08/24 00:17:59;;;;;;;5.63;4.88;;;28.80;96.70;;;;;;5040638;28;21159;-78
2023/08/24 00:20:28;;;;;;;5.82;5.28;;;28.90;96.70;;;;;;5023640;28;20049;-78
2023/08/24 00:22:56;;;;;;;5.60;5.10;;;28.80;96.70;;;;;;5022963;28;20064;-78
2023/08/24 00:25:26;;;;;;;5.10;4.70;;;28.90;96.70;;;;;;5022179;28;20042;-78
2023/08/24 00:27:55;;;;;;;5.43;4.70;;;28.90;96.70;;;;;;5019994;28;20508;-78
2023/08/24 00:30:24;;;;;;;5.28;4.65;;;28.90;96.70;;;;;;5045004;28;20123;-78
2023/08/24 00:32:53;;;;;;;6.50;5.30;;;28.80;96.70;;;;;;5050126;28;20048;-78
2023/08/24 00:35:21;;;;;;;5.55;4.90;;;28.80;96.70;;;;;;5045188;28;20098;-78
2023/08/24 00:37:51;;;;;;;5.70;5.20;;;28.70;96.70;;;;;;5045137;28;20045;-77
2023/08/24 00:40:20;;;;;;;7.05;4.70;;;28.60;96.70;;;;;;5027024;28;20045;-77
2023/08/24 00:42:49;;;;;;;6.13;4.57;;;28.60;96.70;;;;;;5045476;28;20477;-78
2023/08/24 00:45:18;;;;;;;5.47;4.97;;;28.60;96.70;;;;;;5045282;28;20056;-77
2023/08/24 00:47:47;;;;;;;6.20;4.85;;;28.60;96.70;;;;;;5063612;28;20040;-77
2023/08/24 00:50:18;;;;;;;7.05;5.22;;;28.60;96.70;;;;;;5029028;28;20041;-77
2023/08/24 00:52:48;;;;;;;5.35;4.68;;;28.50;96.70;;;;;;5049830;28;20048;-78
2023/08/24 00:55:17;;;;;;;5.13;4.55;;;28.60;96.70;;;;;;5042308;28;20126;-78
2023/08/24 00:57:45;;;;;;;6.30;4.75;;;28.60;96.70;;;;;;5028946;28;20048;-78
2023/08/24 01:00:17;;;;;;;7.03;4.97;;;28.60;96.70;;;;;;5028984;28;20571;-78
2023/08/24 01:02:45;;;;;;;5.38;4.75;;;28.50;96.70;;;;;;5045511;28;20129;-78
2023/08/24 01:05:14;;;;;;;5.55;5.15;;;28.40;96.70;;;;;;5028507;28;20043;-78
2023/08/24 01:07:44;;;;;;;6.93;5.28;;;28.40;96.70;;;;;;5062490;28;20049;-78
2023/08/24 01:10:13;;;;;;;5.82;5.05;;;28.40;96.70;;;;;;5063545;28;20036;-78
2023/08/24 01:13:00;;;;;;;5.55;4.97;;;28.30;96.70;;;;;;5044731;28;20044;-78
2023/08/24 01:15:37;;;;;;;7.70;4.95;;;28.30;96.70;;;;;;5043308;28;20049;-77
2023/08/24 01:18:10;;;;;;;6.82;5.18;;;28.40;96.70;;;;;;5041400;28;20056;-78
2023/08/24 01:20:40;;;;;;;6.40;5.00;;;28.40;96.70;;;;;;5060557;28;20059;-78
2023/08/24 01:23:32;;;;;;;4.75;4.28;;;28.20;96.70;;;;;;5063333;28;20075;-77
2023/08/24 01:26:08;;;;;;;6.05;5.28;;;28.30;96.70;;;;;;5047211;28;20041;-78
2023/08/24 01:28:36;;;;;;;;;;;28.20;96.70;;;;;;5048984;28;20511;-78
2023/08/24 01:31:07;;;;;;;6.13;4.75;;;28.10;96.70;;;;;;5028668;28;19931;-78
2023/08/24 01:33:36;;;;;;;6.93;5.28;;;28.10;96.70;;;;;;5047399;28;20048;-77
2023/08/24 01:36:04;;;;;;;6.45;5.72;;;28.10;96.70;;;;;;5046286;28;20498;-77
2023/08/24 01:38:33;;;;;;;5.82;5.40;;;28.10;96.70;;;;;;5048848;28;20125;-77
2023/08/24 01:41:11;;;;;;;5.80;5.20;;;28.20;96.70;;;;;;5047396;28;20052;-77
2023/08/24 01:43:41;;;;;;;6.80;5.18;;;28.10;96.70;;;;;;5057188;28;20413;-77
2023/08/24 01:46:15;;;;;;;5.50;4.97;;;28.10;96.70;;;;;;5048616;28;21013;-77
2023/08/24 01:48:44;;;;;;;5.75;4.80;;;28.10;96.70;;;;;;5048849;28;20497;-78
2023/08/24 01:51:14;;;;;;;6.28;5.28;;;28.00;96.70;;;;;;5066167;28;20694;-77
2023/08/24 01:53:45;;;;;;;6.43;5.05;;;28.00;96.70;;;;;;5073193;28;20235;-77
2023/08/24 01:56:16;;;;;;;5.50;4.75;;;28.00;96.70;;;;;;5047354;28;20036;-78
2023/08/24 01:58:44;;;;;;;5.35;4.90;;;28.00;96.70;;;;;;5045391;28;20083;-77
2023/08/24 02:01:13;;;;;;;6.45;5.50;;;27.80;96.70;;;;;;5047916;28;20051;-77
2023/08/24 02:03:43;;;;;;;5.82;4.97;;;27.70;96.70;;;;;;5051834;28;20091;-77
2023/08/24 02:06:12;;;;;;;7.65;5.45;;;27.80;96.70;;;;;;5047977;28;20049;-77
2023/08/24 02:08:44;;;;;;;5.88;5.30;;;27.70;96.70;;;;;;5045323;28;20056;-77
2023/08/24 02:11:15;;;;;;;5.90;5.03;;;27.80;96.70;;;;;;5065242;28;20041;-77
2023/08/24 02:13:43;;;;;;;7.97;5.03;;;27.70;96.70;;;;;;5047134;28;20036;-77
2023/08/24 02:16:12;;;;;;;5.95;4.97;;;27.60;96.70;;;;;;5048368;28;20048;-77
2023/08/24 02:18:41;;;;;;;5.78;5.25;;;27.50;96.70;;;;;;5047944;28;20052;-77
2023/08/24 02:21:11;;;;;;;6.40;5.60;;;27.60;96.70;;;;;;5065255;28;20045;-77
2023/08/24 02:23:41;;;;;;;6.82;5.63;;;27.50;96.70;;;;;;5041234;28;20698;-77
2023/08/24 02:26:09;;;;;;;5.82;5.20;;;27.40;96.70;;;;;;5066101;28;20223;-78
2023/08/24 02:28:39;;;;;;;5.80;5.25;;;27.40;96.70;;;;;;5044377;28;20045;-78
2023/08/24 02:31:10;;;;;;;6.53;5.13;;;27.30;96.70;;;;;;5045810;28;20082;-77
2023/08/24 02:33:38;;;;;;;8.15;5.38;;;27.30;96.70;;;;;;5064588;28;20045;-78
2023/08/24 02:36:07;;;;;;;6.20;5.63;;;27.20;96.70;;;;;;5045112;28;20056;-78
2023/08/24 02:38:35;;;;;;;6.68;5.10;;;27.20;96.70;;;;;;5047651;28;20055;-77
2023/08/24 02:41:06;;;;;;;8.55;5.00;;;27.20;96.70;;;;;;5065222;28;20060;-77
2023/08/24 02:43:35;;;;;;;5.20;4.70;;;27.20;96.70;;;;;;5047102;28;20659;-80
2023/08/24 02:46:06;;;;;;;5.78;5.28;;;27.10;96.70;;;;;;5064577;28;20060;-78
2023/08/24 02:48:35;;;;;;;5.18;4.78;;;27.10;96.70;;;;;;5047198;28;20053;-78
2023/08/24 02:51:04;;;;;;;5.95;5.35;;;27.10;96.70;;;;;;5043810;28;20410;-78
2023/08/24 02:53:33;;;;;;;6.82;5.70;;;27.00;96.70;;;;;;5046982;28;20043;-78
2023/08/24 02:56:01;;;;;;;5.20;4.70;;;26.90;96.70;;;;;;5065422;28;20580;-78
2023/08/24 02:58:30;;;;;;;5.95;4.97;;;26.80;96.70;;;;;;5045764;28;20048;-78
2023/08/24 03:00:59;;;;;;;5.10;4.63;;;26.90;96.70;;;;;;5031212;28;20044;-77
2023/08/24 03:03:29;;;;;;;6.20;5.60;;;27.00;96.70;;;;;;5046583;28;20072;-77
2023/08/24 03:05:59;;;;;;;8.23;5.30;;;27.00;96.70;;;;;;5043236;28;20514;-79
2023/08/24 03:08:29;;;;;;;5.50;4.97;;;26.90;96.70;;;;;;5030852;28;20068;-77
2023/08/24 03:10:59;;;;;;;5.20;4.65;;;26.90;96.70;;;;;;5045903;28;20048;-78
2023/08/24 03:13:28;;;;;;;6.57;5.80;;;27.10;96.70;;;;;;5030577;28;20083;-78
2023/08/24 03:15:56;;;;;;;6.50;5.85;;;27.00;96.70;;;;;;5030238;28;20140;-78
2023/08/24 03:18:29;;;;;;;6.30;5.30;;;26.90;96.70;;;;;;5064933;28;20506;-77
2023/08/24 03:20:58;;;;;;;5.75;5.30;;;26.90;96.70;;;;;;5030538;28;20048;-78
2023/08/24 03:23:26;;;;;;;6.07;5.57;;;26.90;96.70;;;;;;5046407;28;20051;-78
2023/08/24 03:25:55;;;;;;;6.90;4.93;;;26.90;96.70;;;;;;5045548;28;20140;-78
2023/08/24 03:28:23;;;;;;;7.68;5.22;;;26.80;96.70;;;;;;5046505;28;20498;-78
2023/08/24 03:30:52;;;;;;;5.65;4.85;;;26.80;96.70;;;;;;5032043;28;20529;-78
2023/08/24 03:33:20;;;;;;;5.80;5.20;;;26.70;96.70;;;;;;5030577;28;20073;-78
2023/08/24 03:35:49;;;;;;;6.40;5.53;;;26.60;96.70;;;;;;5043216;28;20055;-78
2023/08/24 03:38:17;;;;;;;8.32;6.00;;;26.70;96.70;;;;;;5040124;28;20041;-78
2023/08/24 03:40:45;;;;;;;5.80;5.20;;;26.60;96.70;;;;;;5044849;28;20414;-78
2023/08/24 03:43:13;;;;;;;6.15;5.15;;;26.50;96.70;;;;;;5043421;28;20041;-78
2023/08/24 03:45:43;;;;;;;6.18;5.57;;;26.60;96.70;;;;;;5044847;28;20068;-78
2023/08/24 03:48:11;;;;;;;5.40;4.88;;;26.50;96.70;;;;;;5021941;28;20057;-78
2023/08/24 03:50:39;;;;;;;5.35;4.95;;;26.50;96.70;;;;;;5031536;28;20111;-80
2023/08/24 03:53:09;;;;;;;7.60;6.15;;;26.40;96.70;;;;;;5023112;28;20407;-78
2023/08/24 03:55:37;;;;;;;7.10;5.97;;;26.40;96.70;;;;;;5006895;28;20045;-78
2023/08/24 03:58:05;;;;;;;5.95;5.38;;;26.30;96.70;;;;;;5015138;28;20038;-79
2023/08/24 04:00:33;;;;;;;8.50;5.45;;;26.40;96.70;;;;;;5023685;28;20041;-78
2023/08/24 04:03:02;;;;;;;7.07;6.03;;;26.30;96.70;;;;;;5023652;28;20083;-77
2023/08/24 04:05:30;;;;;;;8.52;5.38;;;26.20;96.70;;;;;;5042554;28;20053;-78
2023/08/24 04:08:00;;;;;;;6.30;5.15;;;26.10;96.70;;;;;;5041740;28;20041;-78
2023/08/24 04:10:30;;;;;;;6.70;6.00;;;26.10;96.70;;;;;;5042564;28;20051;-78
2023/08/24 04:12:59;;;;;;;6.63;5.57;;;26.00;96.70;;;;;;5032610;28;20042;-78
2023/08/24 04:15:27;;;;;;;7.20;6.50;;;26.00;96.70;;;;;;5034135;28;20057;-78
2023/08/24 04:17:55;;;;;;;6.10;5.43;;;26.00;96.70;;;;;;5043990;28;20489;-78
2023/08/24 04:20:23;;;;;;;9.00;5.70;;;26.00;96.70;;;;;;5027467;28;20057;-78
2023/08/24 04:22:51;;;;;;;6.68;5.85;;;26.00;96.70;;;;;;5033080;28;20487;-78
2023/08/24 04:25:19;;;;;;;6.55;5.30;;;26.00;96.70;;;;;;5024857;28;20273;-78
2023/08/24 04:27:48;;;;;;;8.70;5.35;;;26.00;96.70;;;;;;5038996;28;20052;-78
2023/08/24 04:30:16;;;;;;;7.18;5.60;;;26.00;96.70;;;;;;5052426;28;20064;-78
2023/08/24 04:32:44;;;;;;;7.65;5.50;;;26.00;96.70;;;;;;5044106;28;20502;-78
2023/08/24 04:35:12;;;;;;;6.57;5.88;;;26.00;96.70;;;;;;5052659;28;20044;-78
2023/08/24 04:37:40;;;;;;;8.18;5.35;;;26.00;96.70;;;;;;5045395;28;20056;-77
2023/08/24 04:40:09;;;;;;;5.95;5.45;;;25.90;96.70;;;;;;5048388;28;20040;-78
2023/08/24 04:42:37;;;;;;;6.97;5.40;;;25.90;96.70;;;;;;5052354;28;20865;-78
2023/08/24 04:45:07;;;;;;;6.00;5.50;;;25.80;96.70;;;;;;5038149;28;20521;-79
2023/08/24 04:47:35;;;;;;;6.25;5.68;;;25.80;96.70;;;;;;5049632;28;20049;-78
2023/08/24 04:50:04;;;;;;;5.72;5.03;;;25.80;96.70;;;;;;5042264;28;20406;-77
2023/08/24 04:52:33;;;;;;;9.45;5.43;;;25.80;96.70;;;;;;5044829;28;20036;-78
2023/08/24 04:55:01;;;;;;;7.15;5.68;;;25.80;96.70;;;;;;5062950;28;20071;-79
2023/08/24 04:57:29;;;;;;;6.65;5.38;;;25.80;96.70;;;;;;5044649;28;20048;-78
2023/08/24 04:59:57;;;;;;;7.97;5.15;;;25.80;96.70;;;;;;5044516;28;20052;-78
2023/08/24 05:02:26;;;;;;;7.28;5.55;;;25.80;96.70;;;;;;5046517;28;20442;-78
2023/08/24 05:04:54;;;;;;;6.65;5.55;;;25.90;96.70;;;;;;5049395;28;20033;-77
2023/08/24 05:07:23;;;;;;;7.03;5.43;;;26.00;96.70;;;;;;5066892;28;20071;-78
2023/08/24 05:09:50;;;;;;;5.78;5.10;;;26.00;96.70;;;;;;5063974;28;20056;-78
2023/08/24 05:12:18;;;;;;;6.78;5.22;;;26.00;96.70;;;;;;5063237;28;20520;-78
2023/08/24 05:14:46;;;;;;;5.57;5.07;;;26.00;96.70;;;;;;5057086;28;20076;-77
2023/08/24 05:17:14;;;;;;;9.10;6.40;;;25.90;96.70;;;;;;5049379;28;20043;-78
2023/08/24 05:19:43;;;;;;;6.03;5.43;;;26.00;96.70;;;;;;5049086;28;20098;-78
2023/08/24 05:22:11;;;;;;;7.20;5.88;;;26.10;96.70;;;;;;5051244;28;20040;-77
2023/08/24 05:24:39;;;;;;;8.23;6.70;;;26.00;96.70;;;;;;5055223;28;20041;-77
2023/08/24 05:27:07;;;;;;;6.40;5.90;;;26.00;96.70;;;;;;5066907;28;20048;-78
2023/08/24 05:29:35;;;;;;;5.97;5.38;;;26.00;96.70;;;;;;5029058;28;20127;-78
2023/08/24 05:32:03;;;;;;;6.63;5.93;;;26.10;96.70;;;;;;5060955;28;20105;-77
2023/08/24 05:34:31;;;;;;;12.55;6.40;;;26.10;96.70;;;;;;5050713;28;20041;-78
2023/08/24 05:37:01;;;;;;;6.05;5.55;;;26.20;96.70;;;;;;5046930;28;20056;-78
2023/08/24 05:39:29;;;;;;;9.27;5.78;;;26.20;96.70;;;;;;5064597;28;20040;-80
2023/08/24 05:41:57;;;;;;;7.55;5.70;;;26.10;96.70;;;;;;5070864;28;20586;-78
2023/08/24 05:44:25;;;;;;;8.27;5.85;;;26.10;96.70;;;;;;5058173;28;20040;-78
2023/08/24 05:46:53;;;;;;;10.40;6.45;;;26.20;96.70;;;;;;5064977;28;20050;-78
2023/08/24 05:49:21;;;;;;;9.07;8.25;;;26.30;96.70;;;;;;5048114;28;20082;-79
2023/08/24 05:51:51;;;;;;;10.75;8.55;;;26.30;96.70;;;;;;5065396;28;20044;-79
2023/08/24 05:54:21;;;;;;;10.93;7.10;;;26.20;96.70;;;;;;5059037;28;20141;-78
2023/08/24 05:56:49;;;;;;;9.15;7.40;;;26.30;96.70;;;;;;5053186;28;20131;-78
2023/08/24 05:59:17;;;;;;;9.07;6.75;;;26.20;96.70;;;;;;5045165;28;20045;-77
2023/08/24 06:01:44;;;;;;;9.15;6.53;;;26.20;96.70;;;;;;5044821;28;20059;-78
2023/08/24 06:04:13;;;;;;;10.20;7.00;;;26.10;96.70;;;;;;5044681;28;20144;-79
2023/08/24 06:06:41;;;;;;;9.63;8.60;;;26.20;96.70;;;;;;5046352;28;20037;-80
2023/08/24 06:09:09;;;;;;;11.73;8.38;;;26.20;96.70;;;;;;5063418;28;20090;-78
2023/08/24 06:11:40;;;;;;;8.23;7.43;;;26.20;96.70;;;;;;5046883;28;20091;-78
2023/08/24 06:14:08;;;;;;;9.45;6.35;;;26.30;96.70;;;;;;5053021;28;20545;-77
2023/08/24 06:16:36;;;;;;;9.85;6.22;;;26.30;96.70;;;;;;5047644;28;20068;-77
2023/08/24 06:19:04;;;;;;;8.70;6.78;;;26.40;96.70;;;;;;5046655;28;20040;-78
2023/08/24 06:21:31;;;;;;;12.52;7.43;;;26.50;96.70;;;;;;5049693;28;20049;-77
2023/08/24 06:24:01;;;;;;;7.45;6.57;;;26.60;96.70;;;;;;5045009;28;20501;-76
2023/08/24 06:26:28;;;;;;;10.40;7.55;;;26.60;96.70;;;;;;5047616;28;20055;-77
2023/08/24 06:28:58;;;;;;;6.95;6.30;;;26.70;96.70;;;;;;5057135;28;20072;-77
2023/08/24 06:31:26;;;;;;;8.07;6.75;;;26.80;96.70;;;;;;5065548;28;20495;-79
2023/08/24 06:33:54;;;;;;;12.38;7.50;;;26.90;96.70;;;;;;5044260;28;20123;-79
2023/08/24 06:36:21;;;;;;;9.02;6.13;;;27.00;96.70;;;;;;5022689;28;20044;-78
2023/08/24 06:38:49;;;;;;;7.80;6.55;;;27.00;96.70;;;;;;5053208;28;20049;-78
2023/08/24 06:41:17;;;;;;;9.77;6.72;;;27.10;96.70;;;;;;5046750;28;20506;-78
2023/08/24 06:43:45;;;;;;;7.28;6.18;;;27.20;96.70;;;;;;5047672;28;20075;-78
2023/08/24 06:46:15;;;;;;;6.88;6.28;;;27.20;96.70;;;;;;5047869;28;20127;-77
2023/08/24 06:48:44;;;;;;;6.72;6.05;;;27.30;96.70;;;;;;5046609;28;20053;-78
2023/08/24 06:51:12;;;;;;;6.05;5.50;;;27.40;96.70;;;;;;5064941;28;20045;-77
2023/08/24 06:53:40;;;;;;;6.60;5.95;;;27.40;96.70;;;;;;5043536;28;20041;-77
2023/08/24 06:56:08;;;;;;;7.45;5.80;;;27.50;96.70;;;;;;5047030;28;20102;-77
2023/08/24 06:58:36;;;;;;;8.90;5.90;;;27.50;96.70;;;;;;5030783;28;20052;-78
2023/08/24 07:01:06;;;;;;;7.43;6.20;;;27.60;96.70;;;;;;5043850;28;20124;-78
2023/08/24 07:03:35;;;;;;;7.40;5.43;;;27.70;96.70;;;;;;5042127;28;20045;-77
2023/08/24 07:06:06;;;;;;;7.03;6.30;;;27.70;96.70;;;;;;5061761;28;20037;-77
2023/08/24 07:08:34;;;;;;;9.40;6.00;;;27.70;96.70;;;;;;5064244;28;20048;-77
2023/08/24 07:11:05;;;;;;;9.73;5.97;;;27.80;96.70;;;;;;5043421;28;20079;-77
2023/08/24 07:13:33;;;;;;;7.82;6.47;;;27.90;96.70;;;;;;5046246;28;20048;-79
2023/08/24 07:16:02;;;;;;;9.00;6.28;;;28.00;96.70;;;;;;5050494;28;20056;-77
2023/08/24 07:18:31;;;;;;;7.20;6.55;;;28.00;96.70;;;;;;5046392;28;20128;-77
2023/08/24 07:21:01;;;;;;;8.18;6.72;;;28.10;96.70;;;;;;5065018;28;20476;-77
2023/08/24 07:23:29;;;;;;;9.05;6.25;;;28.10;96.70;;;;;;5061035;28;20037;-78
2023/08/24 07:25:57;;;;;;;7.88;5.72;;;28.20;96.70;;;;;;5064775;28;20047;-77
2023/08/24 07:28:25;;;;;;;8.07;5.47;;;28.30;96.70;;;;;;5045287;28;20123;-77
2023/08/24 07:30:55;;;;;;;9.10;6.15;;;28.40;96.70;;;;;;5043877;28;20059;-77
2023/08/24 07:33:24;;;;;;;7.38;5.82;;;28.50;96.70;;;;;;5046407;28;20597;-77
2023/08/24 07:35:52;;;;;;;7.60;5.95;;;28.50;96.70;;;;;;5064106;28;20072;-77
2023/08/24 07:38:22;;;;;;;6.35;5.72;;;28.60;96.70;;;;;;5064149;28;20094;-77
2023/08/24 07:40:52;;;;;;;9.82;6.20;;;28.70;96.70;;;;;;5027283;28;20049;-77
2023/08/24 07:43:21;;;;;;;6.30;5.70;;;28.70;96.70;;;;;;5045898;28;20056;-77
2023/08/24 07:45:49;;;;;;;7.45;6.03;;;28.80;96.70;;;;;;5043218;28;20136;-77
2023/08/24 07:48:17;;;;;;;6.97;5.75;;;28.90;96.70;;;;;;5042093;28;20536;-77
2023/08/24 07:50:45;;;;;;;7.53;6.20;;;29.00;96.70;;;;;;5042761;28;20049;-78
2023/08/24 07:53:14;;;;;;;17.23;6.45;;;29.00;96.70;;;;;;5025587;28;20140;-78
2023/08/24 07:55:44;;;;;;;28.60;7.38;;;29.10;96.70;;;;;;5044817;28;20761;-78
2023/08/24 07:58:12;;;;;;;12.77;6.57;;;29.20;96.70;;;;;;5030004;28;20075;-79
2023/08/24 08:00:40;;;;;;;6.72;6.00;;;29.30;96.70;;;;;;5058336;28;20048;-78
2023/08/24 08:03:09;;;;;;;8.77;5.88;;;29.50;96.70;;;;;;5045330;28;20051;-78
2023/08/24 08:05:37;;;;;;;8.52;5.80;;;29.60;96.70;;;;;;5029310;28;21150;-78
2023/08/24 08:08:05;;;;;;;6.88;5.97;;;29.70;96.70;;;;;;5042776;28;20049;-78
2023/08/24 08:10:33;;;;;;;7.47;5.63;;;29.80;96.70;;;;;;5045949;28;20080;-78
2023/08/24 08:13:03;;;;;;;8.50;5.45;;;29.90;96.70;;;;;;5060487;28;20591;-78
2023/08/24 08:15:31;;;;;;;11.70;6.18;;;29.90;96.70;;;;;;5030275;28;20055;-78
2023/08/24 08:17:59;;;;;;;21.42;6.80;;;29.90;96.70;;;;;;5063712;28;20037;-78
2023/08/24 08:20:28;;;;;;;17.75;6.63;;;30.00;96.70;;;;;;5045517;28;20510;-78
2023/08/24 08:22:56;;;;;;;7.18;5.57;;;30.10;96.70;;;;;;5040184;28;20040;-78
2023/08/24 08:25:24;;;;;;;7.82;5.47;;;30.10;96.70;;;;;;5045099;28;20068;-78
2023/08/24 08:27:52;;;;;;;20.13;6.43;;;30.20;96.70;;;;;;5042359;28;20049;-77
2023/08/24 08:30:22;;;;;;;11.98;5.95;;;30.30;96.70;;;;;;5059555;28;20407;-77
2023/08/24 08:32:52;;;;;;;7.68;4.82;;;30.40;96.70;;;;;;5042341;28;20067;-77
2023/08/24 08:35:21;;;;;;;13.32;6.82;;;30.40;96.70;;;;;;5043174;28;20143;-77
2023/08/24 08:37:50;;;;;;;7.30;5.32;;;30.40;96.70;;;;;;5063332;28;20139;-78
2023/08/24 08:40:18;;;;;;;7.60;5.18;;;30.60;96.70;;;;;;5063115;28;20040;-77
2023/08/24 08:42:47;;;;;;;7.55;5.78;;;30.70;96.70;;;;;;5041645;28;20041;-78
2023/08/24 08:45:15;;;;;;;8.93;5.10;;;30.80;96.70;;;;;;5045631;28;20045;-78
2023/08/24 08:47:45;;;;;;;6.25;5.40;;;31.00;96.70;;;;;;5044438;28;20052;-78
2023/08/24 08:50:13;;;;;;;7.35;5.05;;;31.00;96.70;;;;;;5046835;28;20044;-78
2023/08/24 08:52:42;;;;;;;8.30;5.53;;;31.10;96.70;;;;;;5044823;28;20547;-78
2023/08/24 08:55:11;;;;;;;6.75;5.53;;;31.10;96.70;;;;;;5061914;28;20486;-78
2023/08/24 08:57:41;;;;;;;7.38;5.40;;;31.20;96.70;;;;;;5063497;28;20060;-78
2023/08/24 09:00:13;;;;;;;9.57;5.32;;;31.30;96.70;;;;;;5044245;28;20056;-78
2023/08/24 09:02:43;;;;;;;5.90;5.32;;;31.50;96.70;;;;;;5055923;28;20049;-78
2023/08/24 09:05:13;;;;;;;6.45;4.82;;;31.60;96.70;;;;;;5063524;28;20040;-78
2023/08/24 09:07:42;;;;;;;5.93;5.15;;;31.70;96.70;;;;;;5062691;28;20060;-78
2023/08/24 09:10:10;;;;;;;10.00;5.63;;;31.70;96.70;;;;;;5047231;28;20057;-77
2023/08/24 09:12:38;;;;;;;11.40;5.05;;;31.80;96.70;;;;;;5045007;28;20040;-77
2023/08/24 09:15:08;;;;;;;8.00;5.15;;;32.10;96.70;;;;;;5043836;28;20052;-78
2023/08/24 09:17:36;;;;;;;7.72;5.70;;;32.30;96.70;;;;;;5042660;28;20574;-78
2023/08/24 09:20:07;;;;;;;5.57;5.07;;;32.40;96.70;;;;;;5029086;28;20079;-79
2023/08/24 09:22:41;;;;;;;6.78;5.95;;;32.40;96.70;;;;;;5059629;28;20044;-78
2023/08/24 09:25:10;;;;;;;10.13;5.60;;;32.20;96.70;;;;;;5027822;28;20053;-78
2023/08/24 09:27:39;;;;;;;5.57;5.18;;;32.40;96.70;;;;;;5041619;28;20086;-77
2023/08/24 09:30:09;;;;;;;6.57;5.47;;;32.50;96.70;;;;;;5041599;28;20059;-77
2023/08/24 09:32:37;;;;;;;6.30;5.10;;;32.60;96.70;;;;;;5034760;28;20037;-77
2023/08/24 09:35:09;;;;;;;5.40;4.90;;;32.70;96.70;;;;;;5040863;28;20062;-78
2023/08/24 09:37:40;;;;;;;6.97;4.93;;;32.80;96.70;;;;;;5026534;28;20073;-77
2023/08/24 09:40:08;;;;;;;6.93;4.88;;;33.00;96.70;;;;;;5026423;28;20053;-77
2023/08/24 09:42:41;;;;;;;6.45;4.40;;;33.00;96.70;;;;;;5043429;28;20037;-77
2023/08/24 09:45:13;;;;;;;5.43;4.90;;;33.10;96.70;;;;;;5041736;28;20045;-78
2023/08/24 09:47:46;;;;;;;5.50;5.00;;;33.20;96.70;;;;;;5045060;28;20087;-78
2023/08/24 09:50:14;;;;;;;4.82;4.43;;;33.40;96.70;;;;;;5045168;28;20057;-78
2023/08/24 09:52:44;;;;;;;4.80;4.40;;;33.50;96.70;;;;;;5030281;28;20041;-78
2023/08/24 09:55:15;;;;;;;5.72;4.57;;;33.40;96.70;;;;;;5028935;28;20057;-78
2023/08/24 09:57:45;;;;;;;6.50;4.38;;;33.40;96.70;;;;;;5047316;28;20317;-78
2023/08/24 10:00:15;;;;;;;8.10;4.30;;;33.40;96.70;;;;;;5044712;28;20052;-77
2023/08/24 10:02:50;;;;;;;4.55;4.15;;;33.40;96.70;;;;;;5039235;28;20056;-78
2023/08/24 10:05:21;;;;;;;8.57;4.03;;;33.60;96.70;;;;;;5036060;28;20069;-77
2023/08/24 10:07:55;;;;;;;5.25;3.75;;;33.80;96.70;;;;;;5025122;28;20057;-77
2023/08/24 10:10:27;;;;;;;4.35;3.65;;;34.00;96.70;;;;;;5046620;28;20041;-77
2023/08/24 10:12:59;;;;;;;4.07;3.78;;;34.10;96.70;;;;;;5046079;28;20037;-77
2023/08/24 10:15:28;;;;;;;5.90;3.25;;;34.30;96.70;;;;;;5044828;28;20055;-77
2023/08/24 10:17:57;;;;;;;4.07;3.78;;;34.50;96.70;;;;;;5044842;28;20052;-77
2023/08/24 10:20:26;;;;;;;4.93;4.07;;;34.50;96.70;;;;;;5031453;28;20045;-77
2023/08/24 10:22:57;;;;;;;4.72;4.00;;;34.40;96.70;;;;;;5023967;28;20053;-77
2023/08/24 10:25:26;;;;;;;4.32;3.92;;;34.50;96.70;;;;;;5036490;28;20124;-77
2023/08/24 10:27:55;;;;;;;4.60;3.50;;;34.60;96.70;;;;;;5037547;28;20041;-77
2023/08/24 10:30:24;;;;;;;5.50;3.22;;;34.60;96.70;;;;;;5027401;28;20055;-77
2023/08/24 10:32:53;;;;;;;5.13;3.55;;;34.70;96.70;;;;;;5045990;28;20503;-78
2023/08/24 10:35:23;;;;;;;4.28;3.38;;;34.90;96.60;;;;;;5020834;28;20051;-77
2023/08/24 10:37:53;;;;;;;7.78;3.75;;;35.20;96.70;;;;;;5043685;28;20609;-77
2023/08/24 10:40:33;;;;;;;4.70;3.63;;;35.40;96.70;;;;;;5028185;28;20060;-78
2023/08/24 10:43:05;;;;;;;4.05;3.20;;;35.50;95.50;;;;;;5012208;28;20041;-78
2023/08/24 10:45:59;;;;;;;5.30;3.05;;;35.60;94.20;;;;;;5043405;28;20069;-78
2023/08/24 10:48:29;;;;;;;3.30;3.00;;;35.50;93.80;;;;;;5037673;28;20415;-77
2023/08/24 10:51:21;;;;;;;7.25;3.72;;;35.60;93.80;;;;;;5045833;28;20041;-78
2023/08/24 10:53:53;;;;;;;5.15;2.85;;;35.90;93.60;;;;;;5028377;28;20048;-77
2023/08/24 10:56:32;;;;;;;3.30;3.00;;;36.10;93.80;;;;;;5013330;28;20038;-80
2023/08/24 10:59:16;;;;;;;3.47;3.08;;;36.20;93.10;;;;;;5023876;28;20037;-77
2023/08/24 11:01:55;;;;;;;4.63;3.05;;;36.10;92.60;;;;;;5034532;28;20494;-77
2023/08/24 11:04:25;;;;;;;4.15;3.28;;;36.00;93.20;;;;;;5035430;28;20034;-74
2023/08/24 11:06:55;;;;;;;3.53;2.80;;;36.00;92.60;;;;;;5020301;28;20462;-74
2023/08/24 11:09:23;;;;;;;3.35;3.05;;;36.30;91.40;;;;;;5041664;28;20135;-74
2023/08/24 11:12:01;;;;;;;3.47;2.72;;;36.50;90.20;;;;;;5039729;28;20056;-75
2023/08/24 11:14:30;;;;;;;3.42;3.10;;;36.60;89.90;;;;;;5037139;28;20096;-75
2023/08/24 11:17:00;;;;;;;3.53;2.88;;;36.40;89.30;;;;;;5039793;28;20083;-74
2023/08/24 11:19:30;;;;;;;3.88;2.95;;;36.60;88.80;;;;;;5030713;28;20133;-74
2023/08/24 11:21:59;;;;;;;2.90;2.70;;;36.80;88.60;;;;;;5022327;28;20046;-74
2023/08/24 11:24:28;;;;;;;3.72;3.05;;;36.90;88.40;;;;;;5023183;28;20406;-75
2023/08/24 11:27:01;;;;;;;3.30;3.00;;;36.90;88.20;;;;;;5042575;28;20045;-74
2023/08/24 11:29:30;;;;;;;2.95;2.60;;;36.90;88.20;;;;;;5033044;28;20072;-74
2023/08/24 11:31:59;;;;;;;2.95;2.70;;;36.80;87.50;;;;;;5064510;28;20516;-75
2023/08/24 11:34:27;;;;;;;3.17;2.50;;;37.00;86.40;;;;;;5046288;28;20494;-75
2023/08/24 11:36:55;;;;;;;3.10;2.58;;;37.20;86.90;;;;;;5060500;28;20087;-75
2023/08/24 11:39:25;;;;;;;3.80;2.88;;;37.30;86.60;;;;;;5028394;28;20628;-75
2023/08/24 11:42:05;;;;;;;3.05;2.58;;;37.30;86.70;;;;;;5063919;28;20555;-75
2023/08/24 11:44:46;;;;;;;4.03;2.50;;;37.40;85.00;;;;;;5060813;28;20494;-75
2023/08/24 11:47:15;;;;;;;2.83;2.63;;;37.70;85.00;;;;;;5055209;28;20068;-76
2023/08/24 11:49:43;;;;;;;2.92;2.65;;;38.10;85.30;;;;;;5063537;28;20073;-75
2023/08/24 11:52:15;;;;;;;2.83;2.22;;;38.10;85.10;;;;;;5059016;28;20051;-74
2023/08/24 11:54:45;;;;;;;4.45;2.50;;;38.20;82.40;;;;;;5045693;28;20090;-75
2023/08/24 11:57:15;;;;;;;2.95;2.55;;;38.40;83.90;;;;;;5042973;28;20049;-74
2023/08/24 11:59:44;;;;;;;2.78;2.50;;;38.60;82.70;;;;;;5042100;28;20387;-75
2023/08/24 12:02:14;;;;;;;3.47;2.33;;;38.30;82.10;;;;;;5036913;28;20044;-76
2023/08/24 12:04:42;;;;;;;3.58;2.33;;;38.10;82.90;;;;;;5027310;28;20060;-75
2023/08/24 12:07:12;;;;;;;3.05;2.33;;;38.00;81.70;;;;;;5046382;28;20047;-75
2023/08/24 12:09:41;;;;;;;2.40;1.95;;;38.30;81.50;;;;;;5053126;28;20596;-75
2023/08/24 12:12:14;;;;;;;3.95;2.47;;;38.30;81.30;;;;;;5061845;28;20036;-76
2023/08/24 12:14:43;;;;;;;2.40;2.20;;;38.30;80.90;;;;;;5044397;28;20143;-76
2023/08/24 12:17:12;;;;;;;3.75;2.20;;;38.40;80.80;;;;;;5045008;28;20102;-76
2023/08/24 12:19:43;;;;;;;3.05;2.00;;;38.40;80.00;;;;;;5074793;28;20041;-76
2023/08/24 12:22:16;;;;;;;2.40;2.20;;;38.70;79.00;;;;;;5025132;28;20143;-76
2023/08/24 12:24:45;;;;;;;3.10;2.15;;;38.80;79.30;;;;;;5044959;28;20106;-75
2023/08/24 12:27:19;;;;;;;3.10;2.80;;;38.80;79.20;;;;;;5058655;28;20045;-75
2023/08/24 12:29:48;;;;;;;2.05;1.85;;;39.10;79.30;;;;;;5044650;28;20136;-75
2023/08/24 12:32:20;;;;;;;4.05;1.80;;;39.20;79.10;;;;;;5028387;28;20385;-76
2023/08/24 12:34:48;;;;;;;2.38;2.13;;;39.30;78.00;;;;;;5044005;28;20048;-74
2023/08/24 12:37:16;;;;;;;6.93;2.25;;;39.30;78.00;;;;;;5041701;28;20040;-75
2023/08/24 12:39:45;;;;;;;2.47;2.28;;;39.30;77.70;;;;;;5053326;28;20056;-76
2023/08/24 12:42:13;;;;;;;3.05;2.60;;;39.40;78.00;;;;;;5045007;28;20044;-75
2023/08/24 12:44:43;;;;;;;2.08;1.92;;;39.40;78.10;;;;;;5042375;28;20045;-75
2023/08/24 12:47:11;;;;;;;1.95;1.75;;;39.60;79.20;;;;;;5063074;28;20047;-75
2023/08/24 12:49:39;;;;;;;3.22;2.05;;;39.70;76.50;;;;;;5043090;28;20522;-75
2023/08/24 12:52:07;;;;;;;2.60;2.30;;;39.80;77.10;;;;;;5045110;28;20082;-75
2023/08/24 12:54:36;;;;;;;3.00;2.50;;;39.80;78.50;;;;;;5063342;28;20040;-75
2023/08/24 12:57:04;;;;;;;2.28;1.95;;;39.90;79.10;;;;;;5044980;28;20068;-75